createdAt,value
2022-12-28T00:01:22.190Z,99.90
2022-12-28T00:03:50.688Z,99.90
2022-12-28T00:06:19.715Z,99.90
2022-12-28T00:08:49.143Z,99.90
2022-12-28T00:11:27.624Z,99.90
2022-12-28T00:14:00.240Z,99.90
2022-12-28T00:16:30.682Z,99.90
2022-12-28T00:19:00.118Z,99.90
2022-12-28T00:21:28.425Z,99.90
2022-12-28T00:23:59.554Z,99.90
2022-12-28T00:26:28.718Z,99.90
2022-12-28T00:29:03.626Z,99.90
2022-12-28T00:31:33.470Z,99.90
2022-12-28T00:34:01.466Z,99.90
2022-12-28T00:37:08.253Z,99.90
2022-12-28T00:39:18.618Z,99.90
2022-12-28T00:41:46.486Z,99.90
2022-12-28T00:44:14.381Z,99.90
2022-12-28T00:46:42.398Z,99.90
2022-12-28T00:49:10.265Z,99.90
2022-12-28T00:51:38.122Z,99.90
2022-12-28T00:54:06.095Z,99.90
2022-12-28T00:56:35.292Z,99.90
2022-12-28T00:59:03.103Z,99.90
2022-12-28T01:01:31.160Z,99.90
2022-12-28T01:04:00.301Z,99.90
2022-12-28T01:06:29.746Z,99.90
2022-12-28T01:08:58.773Z,99.90
2022-12-28T01:11:30.017Z,99.90
2022-12-28T01:14:02.784Z,99.90
2022-12-28T01:16:32.699Z,99.90
2022-12-28T01:19:02.243Z,99.90
2022-12-28T01:21:32.193Z,99.90
2022-12-28T01:24:01.838Z,99.90
2022-12-28T01:26:30.900Z,99.90
2022-12-28T01:29:00.552Z,99.90
2022-12-28T01:31:28.559Z,99.90
2022-12-28T01:33:56.435Z,99.90
2022-12-28T01:36:25.549Z,99.90
2022-12-28T01:38:54.891Z,99.90
2022-12-28T01:41:23.405Z,99.90
2022-12-28T01:44:24.689Z,99.90
2022-12-28T01:46:56.271Z,99.90
2022-12-28T01:49:29.575Z,99.90
2022-12-28T01:52:01.637Z,99.90
2022-12-28T01:54:32.186Z,99.90
2022-12-28T01:57:00.217Z,99.90
2022-12-28T01:59:33.554Z,99.90
2022-12-28T02:02:02.926Z,99.90
2022-12-28T02:04:30.974Z,99.90
2022-12-28T02:06:58.905Z,99.90
2022-12-28T02:09:30.868Z,99.90
2022-12-28T02:12:00.181Z,99.90
2022-12-28T02:14:28.420Z,99.90
2022-12-28T02:16:56.480Z,99.90
2022-12-28T02:19:38.191Z,99.90
2022-12-28T02:22:46.016Z,99.90
2022-12-28T02:25:34.506Z,99.90
2022-12-28T02:28:14.711Z,99.90
2022-12-28T02:30:54.381Z,99.90
2022-12-28T02:33:27.205Z,99.90
2022-12-28T02:35:59.048Z,99.90
2022-12-28T02:38:31.779Z,99.90
2022-12-28T02:41:04.465Z,99.90
2022-12-28T02:43:33.535Z,99.90
2022-12-28T02:46:29.618Z,99.90
2022-12-28T02:49:29.503Z,99.90
2022-12-28T02:52:06.915Z,99.90
2022-12-28T02:55:24.889Z,99.90
2022-12-28T02:58:19.975Z,99.90
2022-12-28T03:01:01.038Z,99.90
2022-12-28T03:03:35.406Z,99.90
2022-12-28T03:06:30.622Z,99.90
2022-12-28T03:09:05.221Z,99.90
2022-12-28T03:11:39.267Z,99.90
2022-12-28T03:14:10.697Z,99.90
2022-12-28T03:16:54.875Z,99.90
2022-12-28T03:19:49.147Z,99.90
2022-12-28T03:22:35.648Z,99.90
2022-12-28T03:25:24.947Z,99.90
2022-12-28T03:28:12.286Z,99.90
2022-12-28T03:31:01.508Z,99.90
2022-12-28T03:33:30.711Z,99.90
2022-12-28T03:36:09.097Z,99.90
2022-12-28T03:38:48.149Z,99.90
2022-12-28T03:41:20.472Z,99.90
2022-12-28T03:43:53.841Z,99.90
2022-12-28T03:46:25.744Z,99.90
2022-12-28T03:48:54.741Z,99.90
2022-12-28T03:51:25.620Z,99.90
2022-12-28T03:53:55.251Z,99.90
2022-12-28T03:56:26.183Z,99.90
2022-12-28T03:58:56.914Z,99.90
2022-12-28T04:01:32.062Z,99.90
2022-12-28T04:04:00.123Z,99.90
2022-12-28T04:06:29.445Z,99.90
2022-12-28T04:08:58.108Z,99.90
2022-12-28T04:11:29.634Z,99.90
2022-12-28T04:13:59.013Z,99.90
2022-12-28T04:16:30.068Z,99.90
2022-12-28T04:18:58.129Z,99.90
2022-12-28T04:21:26.034Z,99.90
2022-12-28T04:23:56.451Z,99.90
2022-12-28T04:26:24.480Z,99.90
2022-12-28T04:28:54.685Z,99.90
2022-12-28T04:31:54.708Z,99.90
2022-12-28T04:34:23.628Z,99.90
2022-12-28T04:36:57.151Z,99.90
2022-12-28T04:39:26.349Z,99.90
2022-12-28T04:41:54.142Z,99.90
2022-12-28T04:44:21.965Z,99.90
2022-12-28T04:46:49.813Z,99.90
2022-12-28T04:49:17.686Z,99.90
2022-12-28T04:51:45.484Z,99.90
2022-12-28T04:54:14.350Z,99.90
2022-12-28T04:56:43.539Z,99.90
2022-12-28T04:59:11.443Z,99.90
2022-12-28T05:01:39.401Z,99.90
2022-12-28T05:04:07.402Z,99.90
2022-12-28T05:06:35.193Z,99.90
2022-12-28T05:09:03.202Z,99.90
2022-12-28T05:11:31.954Z,99.90
2022-12-28T05:14:01.220Z,99.90
2022-12-28T05:16:30.703Z,99.90
2022-12-28T05:18:59.001Z,99.90
2022-12-28T05:21:28.654Z,99.90
2022-12-28T05:23:56.878Z,99.90
2022-12-28T05:26:27.497Z,99.90
2022-12-28T05:28:56.229Z,99.90
2022-12-28T05:31:26.059Z,99.90
2022-12-28T05:33:54.827Z,99.90
2022-12-28T05:36:24.597Z,99.90
2022-12-28T05:38:52.652Z,99.90
2022-12-28T05:41:22.161Z,99.90
2022-12-28T05:43:50.323Z,99.90
2022-12-28T05:46:20.568Z,99.90
2022-12-28T05:48:49.962Z,99.90
2022-12-28T05:51:20.801Z,99.90
2022-12-28T05:53:48.713Z,99.90
2022-12-28T05:56:18.329Z,99.90
2022-12-28T05:58:47.608Z,99.90
2022-12-28T06:01:17.826Z,99.90
2022-12-28T06:03:46.471Z,99.90
2022-12-28T06:06:18.067Z,99.90
2022-12-28T06:08:48.498Z,99.90
2022-12-28T06:11:21.361Z,99.90
2022-12-28T06:13:49.760Z,99.90
2022-12-28T06:16:19.599Z,99.90
2022-12-28T06:18:48.195Z,99.90
2022-12-28T06:21:20.773Z,99.90
2022-12-28T06:23:48.939Z,99.90
2022-12-28T06:26:18.946Z,99.90
2022-12-28T06:28:47.384Z,99.90
2022-12-28T06:31:17.592Z,99.90
2022-12-28T06:33:45.875Z,99.90
2022-12-28T06:36:19.571Z,99.90
2022-12-28T06:38:50.254Z,99.90
2022-12-28T06:41:19.725Z,99.90
2022-12-28T06:43:48.557Z,99.90
2022-12-28T06:46:17.591Z,99.90
2022-12-28T06:48:45.587Z,99.90
2022-12-28T06:51:15.386Z,99.90
2022-12-28T06:53:44.001Z,99.90
2022-12-28T06:56:15.590Z,99.90
2022-12-28T06:58:44.250Z,99.90
2022-12-28T07:01:14.717Z,99.90
2022-12-28T07:03:42.909Z,99.90
2022-12-28T07:06:11.327Z,99.90
2022-12-28T07:08:39.244Z,99.90
2022-12-28T07:11:09.428Z,99.90
2022-12-28T07:13:38.926Z,99.90
2022-12-28T07:16:08.708Z,99.90
2022-12-28T07:18:37.848Z,99.90
2022-12-28T07:21:07.785Z,99.90
2022-12-28T07:23:36.255Z,99.90
2022-12-28T07:26:07.690Z,99.90
2022-12-28T07:28:39.335Z,99.90
2022-12-28T07:31:08.349Z,99.90
2022-12-28T07:33:38.080Z,99.90
2022-12-28T07:36:08.331Z,99.90
2022-12-28T07:38:36.526Z,99.90
2022-12-28T07:41:05.867Z,99.90
2022-12-28T07:43:34.083Z,99.90
2022-12-28T07:46:05.267Z,99.90
2022-12-28T07:48:33.818Z,99.90
2022-12-28T07:51:08.012Z,99.90
2022-12-28T07:53:35.791Z,99.90
2022-12-28T07:56:04.502Z,99.90
2022-12-28T07:58:32.340Z,99.90
2022-12-28T08:01:10.176Z,99.90
2022-12-28T08:03:38.956Z,99.90
2022-12-28T08:06:09.112Z,99.90
2022-12-28T08:08:37.997Z,99.90
2022-12-28T08:11:07.268Z,99.90
2022-12-28T08:13:36.721Z,99.90
2022-12-28T08:16:05.173Z,99.90
2022-12-28T08:18:35.098Z,99.90
2022-12-28T08:21:03.826Z,99.90
2022-12-28T08:23:32.047Z,99.90
2022-12-28T08:26:06.619Z,99.90
2022-12-28T08:28:34.722Z,99.90
2022-12-28T08:31:07.594Z,99.90
2022-12-28T08:33:37.046Z,99.90
2022-12-28T08:36:05.172Z,99.90
2022-12-28T08:38:33.776Z,99.90
2022-12-28T08:41:04.083Z,99.90
2022-12-28T08:43:33.426Z,99.90
2022-12-28T08:46:02.990Z,99.90
2022-12-28T08:48:31.103Z,99.90
2022-12-28T08:51:05.191Z,99.90
2022-12-28T08:53:33.481Z,99.90
2022-12-28T08:56:06.739Z,99.90
2022-12-28T08:58:35.266Z,99.90
2022-12-28T09:01:07.969Z,99.90
2022-12-28T09:03:37.914Z,99.90
2022-12-28T09:06:08.717Z,99.90
2022-12-28T09:08:36.942Z,99.90
2022-12-28T09:11:06.680Z,99.90
2022-12-28T09:13:35.480Z,99.90
2022-12-28T09:16:05.175Z,99.90
2022-12-28T09:18:33.159Z,99.90
2022-12-28T09:21:07.641Z,99.90
2022-12-28T09:23:36.027Z,99.90
2022-12-28T09:26:09.576Z,99.90
2022-12-28T09:28:37.467Z,99.90
2022-12-28T09:31:05.943Z,99.90
2022-12-28T09:34:32.130Z,99.90
2022-12-28T09:36:43.181Z,99.90
2022-12-28T09:39:13.796Z,99.90
2022-12-28T09:41:48.180Z,99.90
2022-12-28T09:44:39.660Z,99.90
2022-12-28T09:47:17.448Z,99.90
2022-12-28T09:49:50.694Z,99.90
2022-12-28T09:52:28.374Z,99.90
2022-12-28T09:55:06.508Z,99.90
2022-12-28T09:57:38.762Z,99.90
2022-12-28T10:00:09.361Z,99.90
2022-12-28T10:02:39.186Z,99.90
2022-12-28T10:05:08.313Z,99.90
2022-12-28T10:07:38.726Z,99.90
2022-12-28T10:10:07.445Z,99.90
2022-12-28T10:12:36.087Z,99.90
2022-12-28T10:15:07.281Z,99.90
2022-12-28T10:17:35.196Z,99.90
2022-12-28T10:20:02.998Z,99.90
2022-12-28T10:22:41.506Z,99.90
2022-12-28T10:25:15.461Z,99.90
2022-12-28T10:27:45.321Z,99.90
2022-12-28T10:30:18.249Z,99.90
2022-12-28T10:32:51.706Z,99.90
2022-12-28T10:35:28.439Z,99.90
2022-12-28T10:38:02.411Z,99.90
2022-12-28T10:40:33.544Z,99.90
2022-12-28T10:43:08.502Z,99.90
2022-12-28T10:45:46.445Z,99.90
2022-12-28T10:48:19.055Z,99.90
2022-12-28T10:50:54.536Z,99.90
2022-12-28T10:53:30.594Z,99.90
2022-12-28T10:56:03.759Z,99.90
2022-12-28T10:58:33.427Z,99.90
2022-12-28T11:01:05.234Z,99.90
2022-12-28T11:03:37.610Z,99.90
2022-12-28T11:06:10.735Z,99.90
2022-12-28T11:08:40.894Z,99.90
2022-12-28T11:11:17.466Z,99.90
2022-12-28T11:13:48.243Z,99.90
2022-12-28T11:16:16.351Z,99.90
2022-12-28T11:18:44.266Z,99.90
2022-12-28T11:21:15.909Z,99.90
2022-12-28T11:23:45.716Z,99.90
2022-12-28T11:26:14.020Z,99.90
2022-12-28T11:28:42.709Z,99.90
2022-12-28T11:31:19.600Z,99.90
2022-12-28T11:33:51.812Z,99.90
2022-12-28T11:36:22.164Z,99.90
2022-12-28T11:38:54.274Z,99.90
2022-12-28T11:42:02.822Z,99.90
2022-12-28T11:44:53.550Z,99.90
2022-12-28T11:47:31.066Z,99.90
2022-12-28T11:50:39.175Z,99.90
2022-12-28T11:53:22.315Z,99.90
2022-12-28T11:56:07.738Z,99.90
2022-12-28T11:59:12.379Z,99.90
2022-12-28T12:01:45.227Z,99.90
2022-12-28T12:04:29.029Z,99.90
2022-12-28T12:07:31.059Z,99.90
2022-12-28T12:10:15.549Z,99.90
2022-12-28T12:12:53.333Z,99.90
2022-12-28T12:15:25.389Z,99.90
2022-12-28T12:18:00.462Z,99.90
2022-12-28T12:20:44.756Z,99.90
2022-12-28T12:23:22.385Z,99.90
2022-12-28T12:25:54.231Z,99.90
2022-12-28T12:28:37.048Z,99.90
2022-12-28T12:31:10.002Z,99.90
2022-12-28T12:33:41.370Z,99.90
2022-12-28T12:36:25.856Z,99.90
2022-12-28T12:39:18.558Z,99.90
2022-12-28T12:41:56.194Z,99.90
2022-12-28T12:44:34.448Z,99.90
2022-12-28T12:47:26.503Z,99.90
2022-12-28T12:50:12.447Z,99.70
2022-12-28T12:52:43.424Z,98.50
2022-12-28T12:55:21.851Z,98.40
2022-12-28T12:57:58.615Z,98.30
2022-12-28T13:00:33.599Z,98.30
2022-12-28T13:03:19.992Z,97.70
2022-12-28T13:05:53.162Z,98.10
2022-12-28T13:08:25.414Z,98.10
2022-12-28T13:10:55.852Z,98.00
2022-12-28T13:13:31.949Z,97.80
2022-12-28T13:16:04.087Z,97.80
2022-12-28T13:18:47.573Z,97.90
2022-12-28T13:21:21.216Z,97.50
2022-12-28T13:23:50.258Z,97.20
2022-12-28T13:26:18.686Z,97.30
2022-12-28T13:28:52.068Z,97.30
2022-12-28T13:31:23.407Z,97.10
2022-12-28T13:33:59.040Z,97.60
2022-12-28T13:36:27.511Z,97.70
2022-12-28T13:39:04.957Z,97.80
2022-12-28T13:41:35.675Z,97.90
2022-12-28T13:44:16.623Z,97.90
2022-12-28T13:46:50.273Z,97.90
2022-12-28T13:49:20.573Z,98.10
2022-12-28T13:51:53.340Z,97.50
2022-12-28T13:54:24.952Z,97.60
2022-12-28T13:57:14.360Z,97.30
2022-12-28T13:59:44.736Z,97.20
2022-12-28T14:02:18.992Z,97.20
2022-12-28T14:04:53.322Z,97.40
2022-12-28T14:07:24.729Z,97.70
2022-12-28T14:09:53.277Z,97.90
2022-12-28T14:12:21.755Z,98.20
2022-12-28T14:14:50.454Z,98.60
2022-12-28T14:17:21.357Z,99.20
2022-12-28T14:19:49.467Z,99.30
2022-12-28T14:22:29.370Z,99.70
2022-12-28T14:25:06.147Z,99.80
2022-12-28T14:27:36.882Z,99.90
2022-12-28T14:30:06.651Z,99.90
2022-12-28T14:32:42.711Z,99.90
2022-12-28T14:35:19.295Z,99.90
2022-12-28T14:37:50.988Z,99.90
2022-12-28T14:40:26.045Z,99.90
2022-12-28T14:42:55.437Z,99.90
2022-12-28T14:45:35.193Z,99.90
2022-12-28T14:48:31.178Z,99.90
2022-12-28T14:51:00.772Z,99.90
2022-12-28T14:53:29.287Z,99.90
2022-12-28T14:56:03.473Z,99.90
2022-12-28T14:58:38.934Z,99.90
2022-12-28T15:01:09.725Z,99.90
2022-12-28T15:03:53.163Z,99.90
2022-12-28T15:06:21.713Z,99.90
2022-12-28T15:08:50.624Z,99.90
2022-12-28T15:11:19.806Z,99.90
2022-12-28T15:13:47.914Z,99.90
2022-12-28T15:16:17.929Z,99.90
2022-12-28T15:18:46.311Z,99.90
2022-12-28T15:21:18.358Z,99.90
2022-12-28T15:23:49.979Z,99.90
2022-12-28T15:26:18.246Z,99.90
2022-12-28T15:28:46.124Z,99.90
2022-12-28T15:31:18.031Z,99.90
2022-12-28T15:33:46.401Z,99.90
2022-12-28T15:36:18.403Z,99.90
2022-12-28T15:38:46.399Z,99.90
2022-12-28T15:41:31.841Z,99.90
2022-12-28T15:43:59.660Z,99.90
2022-12-28T15:46:27.539Z,99.90
2022-12-28T15:48:55.423Z,99.90
2022-12-28T15:51:24.616Z,99.90
2022-12-28T15:53:52.490Z,99.90
2022-12-28T15:56:22.521Z,99.90
2022-12-28T15:58:53.272Z,99.90
2022-12-28T16:01:21.352Z,99.90
2022-12-28T16:03:50.256Z,99.90
2022-12-28T16:06:18.408Z,99.90
2022-12-28T16:08:47.645Z,99.90
2022-12-28T16:11:18.015Z,99.90
2022-12-28T16:13:51.236Z,99.90
2022-12-28T16:16:19.863Z,99.90
2022-12-28T16:18:47.981Z,99.90
2022-12-28T16:21:16.439Z,99.90
2022-12-28T16:23:45.595Z,99.90
2022-12-28T16:26:14.841Z,99.90
2022-12-28T16:28:42.930Z,99.90
2022-12-28T16:31:22.592Z,99.90
2022-12-28T16:33:54.453Z,99.90
2022-12-28T16:36:22.657Z,99.90
2022-12-28T16:38:50.845Z,99.90
2022-12-28T16:41:20.509Z,99.90
2022-12-28T16:43:49.149Z,99.90
2022-12-28T16:46:17.589Z,99.90
2022-12-28T16:48:45.654Z,99.90
2022-12-28T16:51:13.911Z,99.90
2022-12-28T16:53:41.786Z,99.90
2022-12-28T16:56:11.472Z,99.90
2022-12-28T16:58:44.018Z,99.90
2022-12-28T17:01:15.686Z,99.90
2022-12-28T17:03:43.850Z,99.90
2022-12-28T17:06:12.077Z,99.90
2022-12-28T17:08:39.861Z,99.90
2022-12-28T17:11:11.969Z,99.90
2022-12-28T17:13:41.209Z,99.90
2022-12-28T17:16:09.736Z,99.90
2022-12-28T17:18:37.580Z,99.90
2022-12-28T17:21:07.430Z,99.90
2022-12-28T17:23:35.325Z,99.90
2022-12-28T17:26:03.190Z,99.90
2022-12-28T17:28:30.986Z,99.90
2022-12-28T17:31:06.914Z,99.90
2022-12-28T17:33:39.383Z,99.90
2022-12-28T17:36:09.475Z,99.90
2022-12-28T17:38:37.320Z,99.90
2022-12-28T17:41:08.876Z,99.90
2022-12-28T17:43:36.953Z,99.90
2022-12-28T17:46:06.809Z,99.90
2022-12-28T17:48:34.849Z,99.90
2022-12-28T17:51:10.926Z,99.90
2022-12-28T17:53:39.697Z,99.90
2022-12-28T17:56:09.602Z,99.90
2022-12-28T17:58:37.458Z,99.90
2022-12-28T18:01:07.137Z,99.90
2022-12-28T18:03:35.576Z,99.90
2022-12-28T18:06:03.866Z,99.90
2022-12-28T18:08:32.646Z,99.90
2022-12-28T18:11:00.531Z,99.90
2022-12-28T18:13:28.292Z,99.90
2022-12-28T18:15:56.120Z,99.90
2022-12-28T18:18:25.326Z,99.90
2022-12-28T18:21:00.705Z,99.90
2022-12-28T18:23:28.973Z,99.90
2022-12-28T18:26:02.384Z,99.90
2022-12-28T18:28:30.285Z,99.90
2022-12-28T18:31:02.063Z,99.90
2022-12-28T18:33:32.538Z,99.90
2022-12-28T18:36:02.475Z,99.90
2022-12-28T18:38:30.796Z,99.90
2022-12-28T18:41:00.137Z,99.90
2022-12-28T18:43:28.769Z,99.90
2022-12-28T18:45:58.426Z,99.90
2022-12-28T18:48:27.941Z,99.90
2022-12-28T18:50:58.666Z,99.90
2022-12-28T18:53:27.515Z,99.90
2022-12-28T18:55:59.371Z,99.90
2022-12-28T18:58:27.812Z,99.90
2022-12-28T19:01:01.849Z,99.90
2022-12-28T19:03:29.884Z,99.90
2022-12-28T19:06:02.913Z,99.90
2022-12-28T19:08:32.437Z,99.90
2022-12-28T19:11:00.691Z,99.90
2022-12-28T19:13:28.819Z,99.90
2022-12-28T19:15:56.722Z,99.90
2022-12-28T19:18:24.643Z,99.90
2022-12-28T19:20:57.776Z,99.90
2022-12-28T19:23:27.106Z,99.90
2022-12-28T19:25:59.527Z,99.90
2022-12-28T19:28:27.530Z,99.90
2022-12-28T19:31:01.016Z,99.90
2022-12-28T19:33:32.375Z,99.90
2022-12-28T19:36:00.270Z,99.90
2022-12-28T19:38:29.574Z,99.90
2022-12-28T19:40:58.436Z,99.90
2022-12-28T19:43:26.201Z,99.90
2022-12-28T19:45:54.103Z,99.90
2022-12-28T19:48:21.907Z,99.90
2022-12-28T19:50:50.714Z,99.90
2022-12-28T19:53:18.531Z,99.90
2022-12-28T19:55:47.696Z,99.90
2022-12-28T19:58:15.486Z,99.90
2022-12-28T20:00:43.429Z,99.90
2022-12-28T20:03:11.414Z,99.90
2022-12-28T20:05:39.379Z,99.90
2022-12-28T20:08:07.176Z,99.90
2022-12-28T20:10:35.015Z,99.90
2022-12-28T20:13:04.176Z,99.90
2022-12-28T20:15:31.968Z,99.90
2022-12-28T20:17:59.744Z,99.90
2022-12-28T20:20:32.946Z,99.90
2022-12-28T20:23:03.957Z,99.90
2022-12-28T20:25:31.820Z,99.90
2022-12-28T20:27:59.596Z,99.90
2022-12-28T20:30:28.749Z,99.90
2022-12-28T20:32:56.485Z,99.90
2022-12-28T20:35:26.409Z,99.90
2022-12-28T20:37:54.561Z,99.90
2022-12-28T20:40:22.349Z,99.90
2022-12-28T20:43:07.568Z,99.90
2022-12-28T20:45:36.886Z,99.90
2022-12-28T20:48:05.039Z,99.90
2022-12-28T20:50:32.911Z,99.90
2022-12-28T20:53:00.750Z,99.90
2022-12-28T20:55:28.562Z,99.90
2022-12-28T20:57:56.356Z,99.90
2022-12-28T21:00:24.202Z,99.90
2022-12-28T21:02:53.892Z,99.90
2022-12-28T21:05:21.731Z,99.90
2022-12-28T21:07:49.587Z,99.90
2022-12-28T21:10:17.535Z,99.90
2022-12-28T21:12:45.352Z,99.90
2022-12-28T21:15:13.245Z,99.90
2022-12-28T21:17:41.067Z,99.90
2022-12-28T21:20:11.647Z,99.90
2022-12-28T21:22:39.466Z,99.90
2022-12-28T21:25:08.854Z,99.90
2022-12-28T21:27:36.716Z,99.90
2022-12-28T21:30:05.017Z,99.90
2022-12-28T21:32:32.803Z,99.90
2022-12-28T21:35:00.620Z,99.90
2022-12-28T21:37:35.452Z,99.90
2022-12-28T21:40:05.264Z,99.90
2022-12-28T21:42:33.096Z,99.90
2022-12-28T21:45:01.124Z,99.90
2022-12-28T21:47:29.643Z,99.90
2022-12-28T21:49:57.515Z,99.90
2022-12-28T21:52:25.355Z,99.90
2022-12-28T21:54:54.473Z,99.90
2022-12-28T21:57:22.297Z,99.90
2022-12-28T21:59:50.124Z,99.90
2022-12-28T22:02:37.424Z,99.90
2022-12-28T22:05:23.970Z,99.90
2022-12-28T22:08:13.034Z,99.90
2022-12-28T22:11:00.247Z,99.90
2022-12-28T22:13:28.070Z,99.90
2022-12-28T22:15:57.931Z,99.90
2022-12-28T22:21:13.767Z,99.90
2022-12-28T22:23:41.553Z,99.90
2022-12-28T22:26:10.707Z,99.90
2022-12-28T22:28:38.516Z,99.90
2022-12-28T22:31:06.870Z,99.90
2022-12-28T22:33:35.149Z,99.90
2022-12-28T22:36:10.627Z,99.90
2022-12-28T22:38:38.465Z,99.90
2022-12-28T22:41:06.742Z,99.90
2022-12-28T22:43:35.976Z,99.90
2022-12-28T22:46:05.573Z,99.90
2022-12-28T22:48:33.654Z,99.90
2022-12-28T22:51:05.851Z,99.90
2022-12-28T22:53:34.098Z,99.90
2022-12-28T22:56:04.064Z,99.90
2022-12-28T22:58:32.236Z,99.90
2022-12-28T23:01:09.908Z,99.90
2022-12-28T23:03:38.525Z,99.90
2022-12-28T23:06:06.608Z,99.90
2022-12-28T23:08:34.489Z,99.90
2022-12-28T23:11:04.169Z,99.90
2022-12-28T23:13:33.997Z,99.90
2022-12-28T23:16:02.721Z,99.90
2022-12-28T23:18:50.120Z,99.90
2022-12-28T23:21:37.467Z,99.90
2022-12-28T23:24:23.380Z,99.90
2022-12-28T23:27:08.598Z,99.90
2022-12-28T23:29:36.455Z,99.90
2022-12-28T23:32:04.446Z,99.90
2022-12-28T23:34:33.548Z,99.90
2022-12-28T23:37:01.439Z,99.90
2022-12-28T23:39:29.278Z,99.90
2022-12-28T23:41:57.041Z,99.90
2022-12-28T23:44:26.522Z,99.90
2022-12-28T23:46:58.847Z,99.90
2022-12-28T23:49:27.803Z,99.90
2022-12-28T23:51:57.022Z,99.90
2022-12-28T23:54:24.830Z,99.90
2022-12-28T23:56:52.678Z,99.90
2022-12-28T23:59:20.691Z,99.90
